Time;durP1;ratioP1;P1;durP2;ratioP2;P2;SDS_P1;SDS_P2;PMS_P1;PMS_P2;Temp;Humidity;BMP_temperature;BMP_pressure;BME280_temperature;BME280_humidity;BME280_pressure;Samples;Min_cycle;Max_cycle;Signal;HPM_P1;HPM_P2
2021/08/21 15:25:08;;;;;;;6.90;3.80;;;;;;;27.26;36.23;100363.06;5004821;28;106023;-63
2021/08/21 15:27:35;;;;;;;5.25;3.75;;;;;;;27.10;36.65;100371.28;4999849;28;106106;-63
2021/08/21 15:30:02;;;;;;;5.40;3.97;;;;;;;26.99;37.01;100362.28;4985580;28;106253;-63
2021/08/21 15:32:27;;;;;;;5.43;3.70;;;;;;;26.85;37.45;100367.50;4985412;28;106700;-62
2021/08/21 15:34:56;;;;;;;6.82;5.20;;;;;;;26.78;37.72;100364.22;4985476;28;105909;-62
2021/08/21 15:37:21;;;;;;;8.50;6.32;;;;;;;26.77;37.96;100357.13;4986056;28;105787;-63
2021/08/21 15:39:47;;;;;;;9.32;6.68;;;;;;;26.73;38.13;100355.22;4985340;28;106206;-64
2021/08/21 15:42:14;;;;;;;7.43;5.65;;;;;;;26.70;38.25;100362.03;4985080;28;105920;-62
2021/08/21 15:44:41;;;;;;;9.18;4.80;;;;;;;26.61;38.42;100359.00;4984906;28;106372;-64
2021/08/21 15:47:07;;;;;;;6.53;4.80;;;;;;;26.54;38.66;100355.72;4985651;28;106126;-63
2021/08/21 15:49:40;;;;;;;6.07;4.13;;;;;;;26.48;38.85;100348.63;4984363;28;106227;-63
2021/08/21 15:52:05;;;;;;;5.25;4.18;;;;;;;26.38;38.90;100354.91;4994796;28;106098;-62
2021/08/21 15:54:31;;;;;;;6.15;4.72;;;;;;;26.32;39.25;100351.34;5002132;28;106161;-64
2021/08/21 15:56:56;;;;;;;5.72;4.68;;;;;;;26.26;39.54;100355.16;5004200;28;106115;-64
2021/08/21 15:59:22;;;;;;;4.85;3.70;;;;;;;26.18;39.38;100347.53;5003523;28;106881;-64
2021/08/21 16:01:48;;;;;;;6.22;4.25;;;;;;;26.13;39.63;100348.31;5003194;28;106630;-64
2021/08/21 16:04:13;;;;;;;8.32;4.50;;;;;;;26.09;39.99;100340.94;5002492;28;106161;-64
2021/08/21 16:06:39;;;;;;;5.00;3.97;;;;;;;26.00;40.21;100343.38;5004041;28;106464;-65
2021/08/21 16:09:04;;;;;;;5.40;4.18;;;;;;;25.91;40.31;100340.31;5003530;28;106272;-64
2021/08/21 16:11:29;;;;;;;6.40;4.20;;;;;;;25.78;40.66;100346.28;5003001;28;105960;-63
2021/08/21 16:13:55;;;;;;;5.15;3.80;;;;;;;25.61;40.76;100347.31;5002989;28;108922;-65
2021/08/21 16:16:20;;;;;;;5.13;4.00;;;;;;;25.49;40.76;100341.28;5003159;28;106035;-64
2021/08/21 16:18:45;;;;;;;5.65;4.32;;;;;;;25.37;41.06;100344.25;5003191;28;106452;-64
2021/08/21 16:21:11;;;;;;;5.63;4.22;;;;;;;25.24;41.39;100342.75;5002981;28;107970;-63
2021/08/21 16:23:38;;;;;;;4.50;3.97;;;;;;;25.09;41.91;100337.22;5002783;28;106298;-62
2021/08/21 16:26:06;;;;;;;6.07;4.70;;;;;;;24.94;41.95;100338.75;5003520;28;106421;-63
2021/08/21 16:28:32;;;;;;;7.38;4.65;;;;;;;24.77;42.67;100346.31;5002712;28;106326;-64
2021/08/21 16:30:58;;;;;;;7.72;4.45;;;;;;;24.67;42.68;100339.69;5002406;28;106156;-63
2021/08/21 16:33:25;;;;;;;5.50;4.30;;;;;;;24.55;43.00;100343.63;5002575;28;106027;-63
2021/08/21 16:35:51;;;;;;;6.63;5.30;;;;;;;24.45;43.21;100338.91;4993714;28;106208;-64
2021/08/21 16:38:17;;;;;;;9.82;7.88;;;;;;;24.39;43.58;100342.69;4989533;28;106845;-63
2021/08/21 16:40:44;;;;;;;5.50;4.22;;;;;;;24.29;43.84;100337.94;4989011;28;106039;-62
2021/08/21 16:43:10;;;;;;;6.00;4.35;;;;;;;24.22;44.05;100335.47;4988790;28;106147;-63
2021/08/21 16:45:35;;;;;;;7.45;4.28;;;;;;;24.19;44.34;100344.13;4990336;28;106685;-63
2021/08/21 16:48:01;;;;;;;8.32;4.22;;;;;;;24.11;44.21;100336.44;4989419;28;106170;-62
2021/08/21 16:50:26;;;;;;;5.82;4.57;;;;;;;24.04;44.68;100343.97;4989335;28;106599;-62
2021/08/21 16:52:52;;;;;;;5.85;4.50;;;;;;;24.01;45.02;100341.78;4987253;28;106467;-63
2021/08/21 16:55:17;;;;;;;6.25;4.82;;;;;;;23.96;44.65;100337.94;4990126;28;105977;-62
2021/08/21 16:57:42;;;;;;;5.95;4.07;;;;;;;23.91;44.82;100342.50;4989367;28;106114;-62
2021/08/21 17:00:08;;;;;;;7.80;4.88;;;;;;;23.84;45.43;100331.78;4989426;28;106375;-62
